createdAt,value
2019-05-26T00:00:39.067Z,13.84
2019-05-26T00:01:39.062Z,13.75
2019-05-26T00:02:39.060Z,13.73
2019-05-26T00:03:39.129Z,13.69
2019-05-26T00:04:39.044Z,13.61
2019-05-26T00:05:39.040Z,13.71
2019-05-26T00:06:39.033Z,13.63
2019-05-26T00:07:39.027Z,13.63
2019-05-26T00:08:39.025Z,13.63
2019-05-26T00:09:39.026Z,13.63
2019-05-26T00:10:39.018Z,13.61
2019-05-26T00:11:39.009Z,13.63
2019-05-26T00:12:38.997Z,13.47
2019-05-26T00:13:38.998Z,13.48
2019-05-26T00:14:38.991Z,13.48
2019-05-26T00:15:38.989Z,13.48
2019-05-26T00:16:38.976Z,13.55
2019-05-26T00:17:38.972Z,13.54
2019-05-26T00:18:38.969Z,13.51
2019-05-26T00:19:38.961Z,13.51
2019-05-26T00:20:38.964Z,13.51
2019-05-26T00:21:38.956Z,13.55
2019-05-26T00:22:38.949Z,13.48
2019-05-26T00:23:38.949Z,13.51
2019-05-26T00:24:38.934Z,13.48
2019-05-26T00:25:38.937Z,13.47
2019-05-26T00:26:38.922Z,13.50
2019-05-26T00:27:38.917Z,13.55
2019-05-26T00:28:38.917Z,13.55
2019-05-26T00:29:38.914Z,13.53
2019-05-26T00:30:38.898Z,13.53
2019-05-26T00:31:38.891Z,13.51
2019-05-26T00:32:38.890Z,13.54
2019-05-26T00:33:38.886Z,13.51
2019-05-26T00:34:38.883Z,13.46
2019-05-26T00:35:38.875Z,13.47
2019-05-26T00:36:38.878Z,13.48
2019-05-26T00:37:49.074Z,13.36
2019-05-26T00:38:38.854Z,13.36
2019-05-26T00:39:38.847Z,13.38
2019-05-26T00:40:38.845Z,13.39
2019-05-26T00:41:38.843Z,13.31
2019-05-26T00:42:38.838Z,13.28
2019-05-26T00:43:38.832Z,13.32
2019-05-26T00:44:38.822Z,13.35
2019-05-26T00:45:38.820Z,13.27
2019-05-26T00:46:38.814Z,13.16
2019-05-26T00:47:38.815Z,13.28
2019-05-26T00:48:38.799Z,13.19
2019-05-26T00:49:38.794Z,13.17
2019-05-26T00:50:38.787Z,13.17
2019-05-26T00:51:38.779Z,13.22
2019-05-26T00:52:38.782Z,13.21
2019-05-26T00:53:38.773Z,13.19
2019-05-26T00:54:38.772Z,13.09
2019-05-26T00:55:38.762Z,13.06
2019-05-26T00:56:38.751Z,13.13
2019-05-26T00:57:38.759Z,13.10
2019-05-26T00:58:38.743Z,13.16
2019-05-26T00:59:38.738Z,13.24
2019-05-26T01:00:38.738Z,13.21
2019-05-26T01:01:38.731Z,13.13
2019-05-26T01:02:38.731Z,13.19
2019-05-26T01:03:38.714Z,13.24
2019-05-26T01:04:38.713Z,13.28
2019-05-26T01:05:38.708Z,13.28
2019-05-26T01:06:38.700Z,13.19
2019-05-26T01:07:38.705Z,13.22
2019-05-26T01:08:38.683Z,13.32
2019-05-26T01:09:38.678Z,13.27
2019-05-26T01:10:38.674Z,13.35
2019-05-26T01:11:38.665Z,13.27
2019-05-26T01:12:38.666Z,13.35
2019-05-26T01:13:38.660Z,13.29
2019-05-26T01:14:38.656Z,13.27
2019-05-26T01:15:38.651Z,13.27
2019-05-26T01:16:38.640Z,13.27
2019-05-26T01:17:38.637Z,13.29
2019-05-26T01:18:38.654Z,13.22
2019-05-26T01:19:38.627Z,13.16
2019-05-26T01:20:38.617Z,13.31
2019-05-26T01:21:38.612Z,13.28
2019-05-26T01:22:38.605Z,13.27
2019-05-26T01:23:38.598Z,13.21
2019-05-26T01:24:38.595Z,13.29
2019-05-26T01:25:38.592Z,13.24
2019-05-26T01:26:38.586Z,13.19
2019-05-26T01:27:38.581Z,13.19
2019-05-26T01:28:38.568Z,13.22
2019-05-26T01:29:38.566Z,13.19
2019-05-26T01:30:38.564Z,13.12
2019-05-26T01:31:38.558Z,13.13
2019-05-26T01:32:38.554Z,13.16
2019-05-26T01:33:38.549Z,13.13
2019-05-26T01:34:38.537Z,13.09
2019-05-26T01:35:38.530Z,13.06
2019-05-26T01:36:38.538Z,13.14
2019-05-26T01:37:38.531Z,13.09
2019-05-26T01:38:38.516Z,13.10
2019-05-26T01:39:38.509Z,13.14
2019-05-26T01:40:38.499Z,13.14
2019-05-26T01:41:38.495Z,13.16
2019-05-26T01:42:38.491Z,13.12
2019-05-26T01:43:38.491Z,13.10
2019-05-26T01:44:38.484Z,13.19
2019-05-26T01:45:38.484Z,13.10
2019-05-26T01:46:38.469Z,13.16
2019-05-26T01:47:38.463Z,13.22
2019-05-26T01:48:38.453Z,13.21
2019-05-26T01:49:38.446Z,13.22
2019-05-26T01:50:38.446Z,13.28
2019-05-26T01:51:38.439Z,13.28
2019-05-26T01:52:38.431Z,13.27
2019-05-26T01:53:38.424Z,13.32
2019-05-26T01:54:40.736Z,13.29
2019-05-26T01:55:38.421Z,13.38
2019-05-26T01:56:38.414Z,13.41
2019-05-26T01:57:38.408Z,13.36
2019-05-26T01:58:38.402Z,13.47
2019-05-26T01:59:38.396Z,13.46
2019-05-26T02:00:38.388Z,13.53
2019-05-26T02:01:38.383Z,13.48
2019-05-26T02:02:38.374Z,13.62
2019-05-26T02:03:38.367Z,13.62
2019-05-26T02:04:38.370Z,13.66
2019-05-26T02:05:38.361Z,13.68
2019-05-26T02:06:38.350Z,13.66
2019-05-26T02:07:38.347Z,13.69
2019-05-26T02:08:39.846Z,13.66
2019-05-26T02:09:38.347Z,13.63
2019-05-26T02:10:38.335Z,13.62
2019-05-26T02:11:38.329Z,13.63
2019-05-26T02:12:38.319Z,13.62
2019-05-26T02:13:38.313Z,13.62
2019-05-26T02:14:38.321Z,13.66
2019-05-26T02:15:38.303Z,13.65
2019-05-26T02:16:38.301Z,13.62
2019-05-26T02:17:38.299Z,13.68
2019-05-26T02:18:38.289Z,13.65
2019-05-26T02:19:38.283Z,13.66
2019-05-26T02:20:38.272Z,13.62
2019-05-26T02:21:38.266Z,13.65
2019-05-26T02:22:38.267Z,13.62
2019-05-26T02:23:38.261Z,13.63
2019-05-26T02:24:38.249Z,13.62
2019-05-26T02:25:38.245Z,13.62
2019-05-26T02:26:38.255Z,13.59
2019-05-26T02:27:38.235Z,13.61
2019-05-26T02:28:38.234Z,13.57
2019-05-26T02:29:38.229Z,13.51
2019-05-26T02:30:38.239Z,13.51
2019-05-26T02:31:38.270Z,13.51
2019-05-26T02:32:38.327Z,13.51
2019-05-26T02:33:38.201Z,13.53
2019-05-26T02:34:38.192Z,13.53
2019-05-26T02:35:38.187Z,13.57
2019-05-26T02:36:38.186Z,13.57
2019-05-26T02:37:38.180Z,13.48
2019-05-26T02:38:57.335Z,13.47
2019-05-26T02:39:38.164Z,13.48
2019-05-26T02:40:38.165Z,13.53
2019-05-26T02:41:38.162Z,13.57
2019-05-26T02:42:38.158Z,13.51
2019-05-26T02:43:38.152Z,13.57
2019-05-26T02:44:38.138Z,13.65
2019-05-26T02:45:38.194Z,13.48
2019-05-26T02:46:38.133Z,13.50
2019-05-26T02:47:38.122Z,13.55
2019-05-26T02:48:38.117Z,13.61
2019-05-26T02:49:38.111Z,13.55
2019-05-26T02:50:38.108Z,13.62
2019-05-26T02:51:38.113Z,13.61
2019-05-26T02:52:38.093Z,13.65
2019-05-26T02:53:38.096Z,13.63
2019-05-26T02:54:38.107Z,13.59
2019-05-26T02:55:38.086Z,13.71
2019-05-26T02:56:38.070Z,13.62
2019-05-26T02:57:38.065Z,13.63
2019-05-26T02:58:38.057Z,13.69
2019-05-26T02:59:38.050Z,13.63
2019-05-26T03:00:38.057Z,13.68
2019-05-26T03:01:38.042Z,13.63
2019-05-26T03:02:38.038Z,13.66
2019-05-26T03:03:38.032Z,13.66
2019-05-26T03:04:38.023Z,13.69
2019-05-26T03:05:38.016Z,13.66
2019-05-26T03:06:38.028Z,13.68
2019-05-26T03:07:38.009Z,13.59
2019-05-26T03:08:38.007Z,13.65
2019-05-26T03:09:38.002Z,13.63
2019-05-26T03:10:37.990Z,13.61
2019-05-26T03:11:37.991Z,13.59
2019-05-26T03:12:37.982Z,13.66
2019-05-26T03:13:37.979Z,13.61
2019-05-26T03:14:37.973Z,13.61
2019-05-26T03:15:37.963Z,13.59
2019-05-26T03:16:37.957Z,13.65
2019-05-26T03:17:37.946Z,13.63
2019-05-26T03:18:37.942Z,13.62
2019-05-26T03:19:37.936Z,13.54
2019-05-26T03:20:37.934Z,13.54
2019-05-26T03:21:37.935Z,13.51
2019-05-26T03:22:37.931Z,13.48
2019-05-26T03:23:37.921Z,13.57
2019-05-26T03:24:37.909Z,13.53
2019-05-26T03:25:37.906Z,13.51
2019-05-26T03:26:37.902Z,13.48
2019-05-26T03:27:37.897Z,13.50
2019-05-26T03:28:37.887Z,13.48
2019-05-26T03:29:37.884Z,13.44
2019-05-26T03:30:37.991Z,13.44
2019-05-26T03:31:37.868Z,13.47
2019-05-26T03:32:37.871Z,13.44
2019-05-26T03:33:37.859Z,13.50
2019-05-26T03:34:37.856Z,13.44
2019-05-26T03:35:37.847Z,13.53
2019-05-26T03:36:37.849Z,13.54
2019-05-26T03:37:37.833Z,13.44
2019-05-26T03:38:37.831Z,13.48
2019-05-26T03:39:45.003Z,13.48
2019-05-26T03:40:37.828Z,13.44
2019-05-26T03:41:37.816Z,13.48
2019-05-26T03:42:37.858Z,13.44
2019-05-26T03:43:37.800Z,13.44
2019-05-26T03:44:37.805Z,13.47
2019-05-26T03:45:37.792Z,13.43
2019-05-26T03:46:37.785Z,13.48
2019-05-26T03:47:37.787Z,13.44
2019-05-26T03:48:37.771Z,13.46
2019-05-26T03:49:37.763Z,13.46
2019-05-26T03:50:37.760Z,13.51
2019-05-26T03:51:37.753Z,13.48
2019-05-26T03:52:37.751Z,13.46
2019-05-26T03:53:37.747Z,13.48
2019-05-26T03:54:37.742Z,13.51
2019-05-26T03:55:37.819Z,13.50
2019-05-26T03:56:37.722Z,13.48
2019-05-26T03:57:37.724Z,13.48
2019-05-26T03:58:37.716Z,13.53
2019-05-26T03:59:37.709Z,13.50
2019-05-26T04:00:37.698Z,13.48
2019-05-26T04:01:37.693Z,13.50
2019-05-26T04:02:37.690Z,13.51
2019-05-26T04:03:37.684Z,13.53
2019-05-26T04:04:37.697Z,13.57
2019-05-26T04:05:37.682Z,13.63
2019-05-26T04:06:37.672Z,13.65
2019-05-26T04:07:37.662Z,13.66
2019-05-26T04:08:37.656Z,13.65
2019-05-26T04:09:37.650Z,13.68
2019-05-26T04:10:37.640Z,13.61
2019-05-26T04:11:37.635Z,13.65
2019-05-26T04:12:37.632Z,13.69
2019-05-26T04:13:37.628Z,13.75
2019-05-26T04:14:37.621Z,13.83
2019-05-26T04:15:37.610Z,13.72
2019-05-26T04:16:37.613Z,13.79
2019-05-26T04:17:37.609Z,13.80
2019-05-26T04:18:37.608Z,13.81
2019-05-26T04:19:37.597Z,13.90
2019-05-26T04:20:37.587Z,13.84
2019-05-26T04:21:37.586Z,13.83
2019-05-26T04:22:37.580Z,13.96
2019-05-26T04:23:37.604Z,13.93
2019-05-26T04:24:37.569Z,13.96
2019-05-26T04:25:37.562Z,13.91
2019-05-26T04:26:37.555Z,14.06
2019-05-26T04:27:37.549Z,14.05
2019-05-26T04:28:37.539Z,14.04
2019-05-26T04:29:37.535Z,14.08
2019-05-26T04:30:37.533Z,14.19
2019-05-26T04:31:37.530Z,14.20
2019-05-26T04:32:37.519Z,14.09
2019-05-26T04:33:37.512Z,14.24
2019-05-26T04:34:37.511Z,14.21
2019-05-26T04:35:37.504Z,14.21
2019-05-26T04:36:37.505Z,14.21
2019-05-26T04:37:37.500Z,14.24
2019-05-26T04:38:37.494Z,14.27
2019-05-26T04:39:37.489Z,14.19
2019-05-26T04:40:37.481Z,14.13
2019-05-26T04:41:37.477Z,14.21
2019-05-26T04:42:37.480Z,14.19
2019-05-26T04:43:37.467Z,14.24
2019-05-26T04:44:37.462Z,14.30
2019-05-26T04:45:37.456Z,14.27
2019-05-26T04:46:37.447Z,14.30
2019-05-26T04:47:37.456Z,14.29
2019-05-26T04:48:37.442Z,14.29
2019-05-26T04:49:37.932Z,14.38
2019-05-26T04:50:37.434Z,14.36
2019-05-26T04:51:37.454Z,14.49
2019-05-26T04:52:37.436Z,14.45
2019-05-26T04:53:37.419Z,14.57
2019-05-26T04:54:37.408Z,14.57
2019-05-26T04:55:37.401Z,14.52
2019-05-26T04:56:37.406Z,14.54
2019-05-26T04:57:37.397Z,14.61
2019-05-26T04:58:37.396Z,14.78
2019-05-26T04:59:37.390Z,14.93
2019-05-26T05:00:37.382Z,15.01
2019-05-26T05:01:37.380Z,15.07
2019-05-26T05:02:37.378Z,15.03
2019-05-26T05:03:37.372Z,14.93
2019-05-26T05:04:37.364Z,14.90
2019-05-26T05:05:37.360Z,14.94
2019-05-26T05:06:37.352Z,14.94
2019-05-26T05:07:37.350Z,15.03
2019-05-26T05:08:37.348Z,14.93
2019-05-26T05:09:37.343Z,14.86
2019-05-26T05:10:42.249Z,15.07
2019-05-26T05:11:37.338Z,15.20
2019-05-26T05:12:37.328Z,15.22
2019-05-26T05:13:37.322Z,15.30
2019-05-26T05:14:37.323Z,15.31
2019-05-26T05:15:37.321Z,15.35
2019-05-26T05:16:37.320Z,15.51
2019-05-26T05:17:37.321Z,15.62
2019-05-26T05:18:37.320Z,15.46
2019-05-26T05:19:37.307Z,15.49
2019-05-26T05:20:37.305Z,15.52
2019-05-26T05:21:37.301Z,15.49
2019-05-26T05:22:37.300Z,15.64
2019-05-26T05:23:37.292Z,15.59
2019-05-26T05:24:37.356Z,15.56
2019-05-26T05:25:37.281Z,15.52
2019-05-26T05:26:37.278Z,15.34
2019-05-26T05:27:37.272Z,15.31
2019-05-26T05:28:37.275Z,15.19
2019-05-26T05:29:37.270Z,15.33
2019-05-26T05:30:37.271Z,15.41
2019-05-26T05:31:37.267Z,15.55
2019-05-26T05:32:37.259Z,15.55
2019-05-26T05:33:37.256Z,15.43
2019-05-26T05:34:37.255Z,15.33
2019-05-26T05:35:37.252Z,15.35
2019-05-26T05:36:37.247Z,15.43
2019-05-26T05:37:37.244Z,15.40
2019-05-26T05:38:37.236Z,15.52
2019-05-26T05:39:37.237Z,15.35
2019-05-26T05:40:37.234Z,15.52
2019-05-26T05:41:37.231Z,15.62
2019-05-26T05:42:37.227Z,15.60
2019-05-26T05:43:37.225Z,15.73
2019-05-26T05:44:37.218Z,15.78
2019-05-26T05:45:37.214Z,15.78
2019-05-26T05:46:37.213Z,15.77
2019-05-26T05:47:37.212Z,15.84
2019-05-26T05:48:37.213Z,16.08
2019-05-26T05:49:37.205Z,16.23
2019-05-26T05:50:39.343Z,16.18
2019-05-26T05:51:37.198Z,16.34
2019-05-26T05:52:37.196Z,16.36
2019-05-26T05:53:37.196Z,16.54
2019-05-26T05:54:37.189Z,16.27
2019-05-26T05:55:37.186Z,16.48
2019-05-26T05:56:37.178Z,16.55
2019-05-26T05:57:37.176Z,16.81
2019-05-26T05:58:37.172Z,16.90
2019-05-26T05:59:37.171Z,17.20
2019-05-26T06:00:37.181Z,17.17
2019-05-26T06:01:37.171Z,17.17
2019-05-26T06:02:37.175Z,17.10
2019-05-26T06:03:37.165Z,17.18
2019-05-26T06:04:37.161Z,17.62
2019-05-26T06:05:37.159Z,17.79
2019-05-26T06:06:37.159Z,17.62
2019-05-26T06:07:37.157Z,17.39
2019-05-26T06:08:37.153Z,17.76
2019-05-26T06:09:37.150Z,18.20
2019-05-26T06:10:37.160Z,18.26
2019-05-26T06:11:37.154Z,18.59
2019-05-26T06:12:37.148Z,18.65
2019-05-26T06:13:37.146Z,18.64
2019-05-26T06:14:37.149Z,18.71
2019-05-26T06:15:37.144Z,18.69
2019-05-26T06:16:37.140Z,18.60
2019-05-26T06:17:37.140Z,18.97
2019-05-26T06:18:37.145Z,19.09
2019-05-26T06:19:37.140Z,19.57
2019-05-26T06:20:37.144Z,19.95
2019-05-26T06:21:37.145Z,20.25
2019-05-26T06:22:37.148Z,19.98
2019-05-26T06:23:37.395Z,19.76
2019-05-26T06:24:37.145Z,20.16
2019-05-26T06:25:37.147Z,20.17
2019-05-26T06:26:37.146Z,19.68
2019-05-26T06:27:37.148Z,19.31
2019-05-26T06:28:37.142Z,18.93
2019-05-26T06:29:37.144Z,19.21
2019-05-26T06:30:37.146Z,19.55
2019-05-26T06:31:37.410Z,19.02
2019-05-26T06:32:37.152Z,19.76
2019-05-26T06:33:37.153Z,20.01
2019-05-26T06:34:37.160Z,20.50
2019-05-26T06:35:37.159Z,20.66
2019-05-26T06:36:37.157Z,20.78
2019-05-26T06:37:37.157Z,21.55
2019-05-26T06:38:37.165Z,21.38
2019-05-26T06:39:37.165Z,21.40
2019-05-26T06:40:37.171Z,21.30
2019-05-26T06:41:37.167Z,21.58
2019-05-26T06:42:37.168Z,21.73
2019-05-26T06:43:37.171Z,22.21
2019-05-26T06:44:52.367Z,22.14
2019-05-26T06:45:37.186Z,22.09
2019-05-26T06:46:37.190Z,22.19
2019-05-26T06:47:37.202Z,22.64
2019-05-26T06:48:37.183Z,23.23
2019-05-26T06:49:37.188Z,23.92
2019-05-26T06:50:37.194Z,24.11
2019-05-26T06:51:37.199Z,24.75
2019-05-26T06:52:37.205Z,25.39
2019-05-26T06:53:37.695Z,25.94
2019-05-26T06:54:37.216Z,25.74
2019-05-26T06:55:37.217Z,25.44
2019-05-26T06:56:37.223Z,25.16
2019-05-26T06:57:37.229Z,25.45
2019-05-26T06:58:37.247Z,25.36
2019-05-26T06:59:37.236Z,25.08
2019-05-26T07:00:37.237Z,24.24
2019-05-26T07:01:37.241Z,24.14
2019-05-26T07:02:37.251Z,24.27
2019-05-26T07:03:37.256Z,24.56
2019-05-26T07:04:37.268Z,24.33
2019-05-26T07:05:37.272Z,24.63
2019-05-26T07:06:37.273Z,24.64
2019-05-26T07:07:37.279Z,24.51
2019-05-26T07:08:37.352Z,24.26
2019-05-26T07:09:37.288Z,23.50
2019-05-26T07:10:37.295Z,23.37
2019-05-26T07:11:53.999Z,23.45
2019-05-26T07:12:37.315Z,23.72
2019-05-26T07:13:37.310Z,24.00
2019-05-26T07:14:37.315Z,24.56
2019-05-26T07:15:37.317Z,24.67
2019-05-26T07:16:38.896Z,25.45
2019-05-26T07:17:37.333Z,25.48
2019-05-26T07:18:37.338Z,25.57
2019-05-26T07:19:37.342Z,24.99
2019-05-26T07:20:37.343Z,25.19
2019-05-26T07:21:37.352Z,25.23
2019-05-26T07:22:37.351Z,25.08
2019-05-26T07:23:37.358Z,25.27
2019-05-26T07:24:37.369Z,25.63
2019-05-26T07:25:37.442Z,26.23
2019-05-26T07:26:37.382Z,27.05
2019-05-26T07:27:37.379Z,26.97
2019-05-26T07:28:37.392Z,27.30
2019-05-26T07:29:37.397Z,26.53
2019-05-26T07:30:37.408Z,26.69
2019-05-26T07:31:37.414Z,26.91
2019-05-26T07:32:37.425Z,27.66
2019-05-26T07:33:37.427Z,28.18
2019-05-26T07:34:37.433Z,28.33
2019-05-26T07:35:37.440Z,29.18
2019-05-26T07:36:37.453Z,30.08
2019-05-26T07:37:37.461Z,30.28
2019-05-26T07:38:37.467Z,29.70
2019-05-26T07:39:37.476Z,26.81
2019-05-26T07:40:37.480Z,27.09
2019-05-26T07:41:37.492Z,26.50
2019-05-26T07:42:37.505Z,26.39
2019-05-26T07:43:37.511Z,25.89
2019-05-26T07:44:37.517Z,26.81
2019-05-26T07:45:37.527Z,27.52
2019-05-26T07:46:37.538Z,26.75
2019-05-26T07:47:37.547Z,25.79
2019-05-26T07:48:37.560Z,25.22
2019-05-26T07:49:37.573Z,25.35
2019-05-26T07:50:37.579Z,25.29
2019-05-26T07:51:37.589Z,25.42
2019-05-26T07:52:37.595Z,26.21
2019-05-26T07:53:37.604Z,25.11
2019-05-26T07:54:37.617Z,24.33
2019-05-26T07:55:37.618Z,25.04
2019-05-26T07:56:37.634Z,26.08
2019-05-26T07:57:37.643Z,26.83
2019-05-26T07:58:37.647Z,26.56
2019-05-26T07:59:37.656Z,26.04
2019-05-26T08:00:37.669Z,25.57
2019-05-26T08:01:37.690Z,24.86
2019-05-26T08:02:37.693Z,25.38
2019-05-26T08:03:37.708Z,25.44
2019-05-26T08:04:37.705Z,24.89
2019-05-26T08:05:37.720Z,24.30
2019-05-26T08:06:37.720Z,24.79
2019-05-26T08:07:37.733Z,24.53
2019-05-26T08:08:37.739Z,25.05
2019-05-26T08:09:37.749Z,25.46
2019-05-26T08:10:37.760Z,26.17
2019-05-26T08:11:37.768Z,26.93
2019-05-26T08:12:37.774Z,27.83
2019-05-26T08:13:37.783Z,28.45
2019-05-26T08:14:37.795Z,28.76
2019-05-26T08:15:37.803Z,28.89
2019-05-26T08:16:37.812Z,29.35
2019-05-26T08:17:37.830Z,30.13
2019-05-26T08:18:37.828Z,30.93
2019-05-26T08:19:37.836Z,30.73
2019-05-26T08:20:37.849Z,31.35
2019-05-26T08:21:37.860Z,30.00
2019-05-26T08:22:37.876Z,30.30
2019-05-26T08:23:37.881Z,30.23
2019-05-26T08:24:37.888Z,28.85
2019-05-26T08:25:37.897Z,28.62
2019-05-26T08:26:37.914Z,28.51
2019-05-26T08:27:37.919Z,28.32
2019-05-26T08:28:37.935Z,27.62
2019-05-26T08:29:37.944Z,27.66
2019-05-26T08:30:37.952Z,26.88
2019-05-26T08:31:37.962Z,26.81
2019-05-26T08:32:37.977Z,26.38
2019-05-26T08:33:37.985Z,25.72
2019-05-26T08:34:37.993Z,25.57
2019-05-26T08:35:38.001Z,25.69
2019-05-26T08:36:38.010Z,25.85
2019-05-26T08:37:38.019Z,26.03
2019-05-26T08:38:38.025Z,26.24
2019-05-26T08:39:38.060Z,25.54
2019-05-26T08:40:38.042Z,25.71
2019-05-26T08:41:38.051Z,25.74
2019-05-26T08:42:44.557Z,25.66
2019-05-26T08:43:38.067Z,25.85
2019-05-26T08:44:38.070Z,26.12
2019-05-26T08:45:38.080Z,26.32
2019-05-26T08:46:38.088Z,26.29
2019-05-26T08:47:38.093Z,26.29
2019-05-26T08:48:38.097Z,26.12
2019-05-26T08:49:38.101Z,25.66
2019-05-26T08:50:38.106Z,25.60
2019-05-26T08:51:38.110Z,25.57
2019-05-26T08:52:38.122Z,25.51
2019-05-26T08:53:38.126Z,25.24
2019-05-26T08:54:38.134Z,25.16
2019-05-26T08:55:38.137Z,25.04
2019-05-26T08:56:38.139Z,25.05
2019-05-26T08:57:38.143Z,24.51
2019-05-26T08:58:38.153Z,24.04
2019-05-26T08:59:38.157Z,24.08
2019-05-26T09:00:38.187Z,23.99
2019-05-26T09:01:38.172Z,24.00
2019-05-26T09:02:38.222Z,24.05
2019-05-26T09:03:38.174Z,24.04
2019-05-26T09:04:38.183Z,23.94
2019-05-26T09:05:38.190Z,24.00
2019-05-26T09:06:38.191Z,24.14
2019-05-26T09:07:38.192Z,24.31
2019-05-26T09:08:38.192Z,24.16
2019-05-26T09:09:38.197Z,24.21
2019-05-26T09:10:38.203Z,24.00
2019-05-26T09:11:38.206Z,24.04
2019-05-26T09:12:38.214Z,24.02
2019-05-26T09:13:38.216Z,24.23
2019-05-26T09:14:38.219Z,24.33
2019-05-26T09:15:38.221Z,24.46
2019-05-26T09:16:38.221Z,24.56
2019-05-26T09:17:38.225Z,24.56
2019-05-26T09:18:38.233Z,24.27
2019-05-26T09:19:38.235Z,24.19
2019-05-26T09:20:38.236Z,24.23
2019-05-26T09:21:38.237Z,24.19
2019-05-26T09:22:38.248Z,24.14
2019-05-26T09:23:38.247Z,24.29
2019-05-26T09:24:38.255Z,24.19
2019-05-26T09:25:38.257Z,24.05
2019-05-26T09:26:38.258Z,24.06
2019-05-26T09:27:38.266Z,24.14
2019-05-26T09:28:38.262Z,24.08
2019-05-26T09:29:38.263Z,23.89
2019-05-26T09:30:38.265Z,23.82
2019-05-26T09:31:38.268Z,23.68
2019-05-26T09:32:38.273Z,23.77
2019-05-26T09:33:38.283Z,23.78
2019-05-26T09:34:38.277Z,23.54
2019-05-26T09:35:38.277Z,23.42
2019-05-26T09:36:38.286Z,23.49
2019-05-26T09:37:38.286Z,23.44
2019-05-26T09:38:38.294Z,23.37
2019-05-26T09:39:38.334Z,23.38
2019-05-26T09:40:38.294Z,23.37
2019-05-26T09:41:38.298Z,23.54
2019-05-26T09:42:38.299Z,23.47
2019-05-26T09:43:38.300Z,23.53
2019-05-26T09:44:38.305Z,23.54
2019-05-26T09:45:38.359Z,23.64
2019-05-26T09:46:38.322Z,23.57
2019-05-26T09:47:38.310Z,23.56
2019-05-26T09:48:38.308Z,23.62
2019-05-26T09:49:38.310Z,23.57
2019-05-26T09:50:38.315Z,23.47
2019-05-26T09:51:38.321Z,23.41
2019-05-26T09:52:38.317Z,23.39
2019-05-26T09:53:38.319Z,23.38
2019-05-26T09:54:38.323Z,23.39
2019-05-26T09:55:38.323Z,23.35
2019-05-26T09:56:38.336Z,23.53
2019-05-26T09:57:38.332Z,23.62
2019-05-26T09:58:38.335Z,23.63
2019-05-26T09:59:38.335Z,23.68
2019-05-26T10:00:38.335Z,23.75
2019-05-26T10:01:38.336Z,23.90
2019-05-26T10:02:38.338Z,23.90
2019-05-26T10:03:38.338Z,24.02
2019-05-26T10:04:38.342Z,23.97
2019-05-26T10:05:38.346Z,24.15
2019-05-26T10:06:38.343Z,24.16
2019-05-26T10:07:38.343Z,24.34
2019-05-26T10:08:38.351Z,24.44
2019-05-26T10:09:38.352Z,24.41
2019-05-26T10:10:38.357Z,24.29
2019-05-26T10:11:38.358Z,24.33
2019-05-26T10:12:38.356Z,24.27
2019-05-26T10:13:38.357Z,24.37
2019-05-26T10:14:38.363Z,24.41
2019-05-26T10:15:38.364Z,24.48
2019-05-26T10:16:38.363Z,24.63
2019-05-26T10:17:38.364Z,24.71
2019-05-26T10:18:38.369Z,24.86
2019-05-26T10:19:38.372Z,24.93
2019-05-26T10:20:38.380Z,24.84
2019-05-26T10:21:38.383Z,24.71
2019-05-26T10:22:38.387Z,24.84
2019-05-26T10:23:38.381Z,24.86
2019-05-26T10:24:38.388Z,24.94
2019-05-26T10:25:38.391Z,24.99
2019-05-26T10:26:38.392Z,24.97
2019-05-26T10:27:38.394Z,25.01
2019-05-26T10:28:38.391Z,25.17
2019-05-26T10:29:38.394Z,25.30
2019-05-26T10:30:38.397Z,25.36
2019-05-26T10:31:38.399Z,25.48
2019-05-26T10:32:38.410Z,25.46
2019-05-26T10:33:38.409Z,25.23
2019-05-26T10:34:38.416Z,25.38
2019-05-26T10:35:38.416Z,25.14
2019-05-26T10:36:38.417Z,25.16
2019-05-26T10:37:38.421Z,25.27
2019-05-26T10:38:38.427Z,25.30
2019-05-26T10:39:38.428Z,25.14
2019-05-26T10:40:38.427Z,25.26
2019-05-26T10:41:38.430Z,25.44
2019-05-26T10:42:38.432Z,25.54
2019-05-26T10:43:46.779Z,25.46
2019-05-26T10:44:38.441Z,25.41
2019-05-26T10:45:38.443Z,25.12
2019-05-26T10:46:38.448Z,25.12
2019-05-26T10:47:38.452Z,24.98
2019-05-26T10:48:38.453Z,24.84
2019-05-26T10:49:38.581Z,24.79
2019-05-26T10:50:38.460Z,24.83
2019-05-26T10:51:38.462Z,24.84
2019-05-26T10:52:38.468Z,24.93
2019-05-26T10:53:38.471Z,24.77
2019-05-26T10:54:38.472Z,24.74
2019-05-26T10:55:38.477Z,24.71
2019-05-26T10:56:38.481Z,24.61
2019-05-26T10:57:38.503Z,24.55
2019-05-26T10:58:38.487Z,24.49
2019-05-26T10:59:38.490Z,24.34
2019-05-26T11:00:38.489Z,24.24
2019-05-26T11:01:38.490Z,24.39
2019-05-26T11:02:38.496Z,24.23
2019-05-26T11:03:38.497Z,24.23
2019-05-26T11:04:38.501Z,24.39
2019-05-26T11:05:38.504Z,24.42
2019-05-26T11:06:38.513Z,24.49
2019-05-26T11:07:38.514Z,24.46
2019-05-26T11:08:38.512Z,24.56
2019-05-26T11:09:38.515Z,24.63
2019-05-26T11:10:38.524Z,24.67
2019-05-26T11:11:38.524Z,24.71
2019-05-26T11:12:38.529Z,24.86
2019-05-26T11:13:40.706Z,24.97
2019-05-26T11:14:38.528Z,24.98
2019-05-26T11:15:38.534Z,24.67
2019-05-26T11:16:38.536Z,24.64
2019-05-26T11:17:38.539Z,24.48
2019-05-26T11:18:38.545Z,24.48
2019-05-26T11:19:38.545Z,24.34
2019-05-26T11:20:38.546Z,24.36
2019-05-26T11:21:38.550Z,24.42
2019-05-26T11:22:38.563Z,24.41
2019-05-26T11:23:38.549Z,24.24
2019-05-26T11:24:38.562Z,24.14
2019-05-26T11:25:38.559Z,24.14
2019-05-26T11:26:38.558Z,24.19
2019-05-26T11:27:38.562Z,24.12
2019-05-26T11:28:38.565Z,24.18
2019-05-26T11:29:38.567Z,24.00
2019-05-26T11:30:38.575Z,23.87
2019-05-26T11:31:38.575Z,23.81
2019-05-26T11:32:38.572Z,23.79
2019-05-26T11:33:38.574Z,23.96
2019-05-26T11:34:38.577Z,23.94
2019-05-26T11:35:38.578Z,23.90
2019-05-26T11:36:38.590Z,23.90
2019-05-26T11:37:38.587Z,23.97
2019-05-26T11:38:38.588Z,23.96
2019-05-26T11:39:38.587Z,23.97
2019-05-26T11:40:38.588Z,24.05
2019-05-26T11:41:38.588Z,24.15
2019-05-26T11:42:38.594Z,24.21
2019-05-26T11:43:38.597Z,24.29
2019-05-26T11:44:38.596Z,24.31
2019-05-26T11:45:38.597Z,23.99
2019-05-26T11:46:38.601Z,24.02
2019-05-26T11:47:38.609Z,24.14
2019-05-26T11:48:39.439Z,24.18
2019-05-26T11:49:38.612Z,24.31
2019-05-26T11:50:38.612Z,24.60
2019-05-26T11:51:38.613Z,24.74
2019-05-26T11:52:38.611Z,24.86
2019-05-26T11:53:38.616Z,25.07
2019-05-26T11:54:38.615Z,25.30
2019-05-26T11:55:38.619Z,25.20
2019-05-26T11:56:38.621Z,25.35
2019-05-26T11:57:38.640Z,25.48
2019-05-26T11:58:38.623Z,25.49
2019-05-26T11:59:38.627Z,25.72
2019-05-26T12:00:38.632Z,25.83
2019-05-26T12:01:38.636Z,25.64
2019-05-26T12:02:38.640Z,25.61
2019-05-26T12:03:38.644Z,25.49
2019-05-26T12:04:38.642Z,25.44
2019-05-26T12:05:38.645Z,25.39
2019-05-26T12:06:38.650Z,25.45
2019-05-26T12:07:38.650Z,25.30
2019-05-26T12:08:38.658Z,25.38
2019-05-26T12:09:38.659Z,25.45
2019-05-26T12:10:38.662Z,25.42
2019-05-26T12:11:38.665Z,25.57
2019-05-26T12:12:38.664Z,25.75
2019-05-26T12:13:38.668Z,25.83
2019-05-26T12:14:38.676Z,25.86
2019-05-26T12:15:38.677Z,25.85
2019-05-26T12:16:38.678Z,25.86
2019-05-26T12:17:38.679Z,25.96
2019-05-26T12:18:38.686Z,25.93
2019-05-26T12:19:38.689Z,25.89
2019-05-26T12:20:38.694Z,26.00
2019-05-26T12:21:38.700Z,26.13
2019-05-26T12:22:38.699Z,25.93
2019-05-26T12:23:38.702Z,25.98
2019-05-26T12:24:38.701Z,25.79
2019-05-26T12:25:38.707Z,25.82
2019-05-26T12:26:38.713Z,25.63
2019-05-26T12:27:38.713Z,25.48
2019-05-26T12:28:38.726Z,25.46
2019-05-26T12:29:38.762Z,25.44
2019-05-26T12:30:38.725Z,25.48
2019-05-26T12:31:38.729Z,25.69
2019-05-26T12:32:38.734Z,25.86
2019-05-26T12:33:38.742Z,25.86
2019-05-26T12:34:38.741Z,26.04
2019-05-26T12:35:38.743Z,26.20
2019-05-26T12:36:39.544Z,26.35
2019-05-26T12:37:38.756Z,26.01
2019-05-26T12:38:38.749Z,26.16
2019-05-26T12:39:38.756Z,26.06
2019-05-26T12:40:38.763Z,25.98
2019-05-26T12:41:38.764Z,26.00
2019-05-26T12:42:38.769Z,26.00
2019-05-26T12:43:38.772Z,26.13
2019-05-26T12:44:49.152Z,26.29
2019-05-26T12:45:38.775Z,26.23
2019-05-26T12:46:38.784Z,26.31
2019-05-26T12:47:38.815Z,26.47
2019-05-26T12:48:38.787Z,26.53
2019-05-26T12:49:38.790Z,26.66
2019-05-26T12:50:38.790Z,26.68
2019-05-26T12:51:38.796Z,26.51
2019-05-26T12:52:38.815Z,26.34